createdAt,value
2023-05-20T00:00:15.173Z,14.00
2023-05-20T00:03:03.414Z,14.00
2023-05-20T00:05:52.890Z,14.00
2023-05-20T00:08:41.080Z,14.00
2023-05-20T00:11:29.178Z,14.00
2023-05-20T00:14:17.302Z,14.00
2023-05-20T00:17:05.550Z,14.00
2023-05-20T00:19:53.917Z,14.00
2023-05-20T00:22:43.380Z,14.10
2023-05-20T00:25:32.732Z,14.10
2023-05-20T00:28:21.739Z,14.10
2023-05-20T00:31:09.887Z,14.10
2023-05-20T00:33:57.992Z,14.10
2023-05-20T00:36:46.195Z,14.20
2023-05-20T00:39:35.676Z,14.20
2023-05-20T00:42:24.026Z,14.20
2023-05-20T00:45:12.367Z,14.30
2023-05-20T00:48:02.389Z,14.30
2023-05-20T00:50:50.696Z,14.30
2023-05-20T00:53:39.514Z,14.30
2023-05-20T00:56:29.796Z,14.30
2023-05-20T00:59:17.954Z,14.30
2023-05-20T01:02:06.382Z,14.30
2023-05-20T01:04:56.577Z,14.30
2023-05-20T01:07:44.840Z,14.30
2023-05-20T01:10:33.494Z,14.30
2023-05-20T01:13:24.600Z,14.30
2023-05-20T01:16:13.021Z,14.30
2023-05-20T01:19:04.030Z,14.30
2023-05-20T01:21:54.356Z,14.30
2023-05-20T01:24:44.951Z,14.30
2023-05-20T01:27:33.103Z,14.30
2023-05-20T01:30:21.371Z,14.30
2023-05-20T01:33:11.835Z,14.30
2023-05-20T01:36:00.202Z,14.30
2023-05-20T01:38:48.832Z,14.30
2023-05-20T01:41:38.840Z,14.20
2023-05-20T01:44:26.999Z,14.30
2023-05-20T01:47:15.338Z,14.20
2023-05-20T01:50:03.427Z,14.20
2023-05-20T01:52:51.526Z,14.20
2023-05-20T01:55:39.712Z,14.10
2023-05-20T01:58:29.183Z,14.10
2023-05-20T02:01:17.365Z,14.10
2023-05-20T02:04:05.882Z,14.10
2023-05-20T02:06:54.047Z,14.10
2023-05-20T02:09:42.359Z,14.10
2023-05-20T02:12:30.888Z,14.10
2023-05-20T02:15:20.792Z,14.10
2023-05-20T02:18:09.040Z,14.10
2023-05-20T02:20:57.558Z,14.00
2023-05-20T02:23:46.008Z,14.00
2023-05-20T02:26:34.089Z,14.00
2023-05-20T02:29:22.275Z,14.00
2023-05-20T02:32:12.638Z,14.00
2023-05-20T02:35:00.856Z,14.00
2023-05-20T02:37:48.982Z,14.00
2023-05-20T02:40:37.110Z,13.90
2023-05-20T02:43:25.333Z,13.90
2023-05-20T02:46:13.499Z,13.90
2023-05-20T02:49:03.039Z,13.90
2023-05-20T02:51:51.171Z,13.90
2023-05-20T02:54:39.736Z,13.80
2023-05-20T02:57:28.444Z,13.80
2023-05-20T03:00:16.680Z,13.80
2023-05-20T03:03:04.922Z,13.80
2023-05-20T03:05:54.456Z,13.80
2023-05-20T03:08:43.269Z,13.80
2023-05-20T03:11:31.376Z,13.80
2023-05-20T03:14:19.548Z,13.80
2023-05-20T03:17:07.657Z,13.80
2023-05-20T03:19:56.213Z,13.80
2023-05-20T03:22:45.715Z,13.80
2023-05-20T03:25:34.094Z,13.80
2023-05-20T03:28:22.408Z,13.80
2023-05-20T03:31:10.558Z,13.70
2023-05-20T03:33:58.708Z,13.80
2023-05-20T03:36:46.860Z,13.70
2023-05-20T03:39:36.434Z,13.70
2023-05-20T03:42:24.635Z,13.70
2023-05-20T03:45:12.803Z,13.70
2023-05-20T03:48:01.045Z,13.70
2023-05-20T03:50:49.213Z,13.70
2023-05-20T03:53:37.335Z,13.70
2023-05-20T03:56:27.450Z,13.70
2023-05-20T03:59:15.584Z,13.70
2023-05-20T04:02:03.782Z,13.70
2023-05-20T04:04:53.054Z,13.70
2023-05-20T04:07:41.354Z,13.70
2023-05-20T04:10:31.037Z,13.70
2023-05-20T04:13:20.600Z,13.80
2023-05-20T04:16:09.258Z,13.80
2023-05-20T04:18:59.151Z,13.80
2023-05-20T04:21:47.700Z,13.80
2023-05-20T04:24:35.848Z,13.80
2023-05-20T04:27:24.491Z,13.80
2023-05-20T04:30:14.263Z,13.80
2023-05-20T04:33:03.677Z,13.80
2023-05-20T04:35:52.439Z,13.80
2023-05-20T04:38:42.286Z,13.70
2023-05-20T04:41:32.464Z,13.80
2023-05-20T04:44:20.645Z,13.80
2023-05-20T04:47:10.105Z,13.80
2023-05-20T04:49:58.538Z,13.70
2023-05-20T04:52:47.197Z,13.70
2023-05-20T04:55:37.507Z,13.70
2023-05-20T04:58:25.722Z,13.80
2023-05-20T05:01:13.866Z,13.70
2023-05-20T05:04:03.712Z,13.70
2023-05-20T05:06:51.972Z,13.70
2023-05-20T05:09:40.180Z,13.70
2023-05-20T05:12:28.309Z,13.60
2023-05-20T05:15:16.451Z,13.60
2023-05-20T05:18:04.663Z,13.60
2023-05-20T05:21:00.874Z,13.60
2023-05-20T05:23:49.007Z,13.70
2023-05-20T05:26:37.158Z,13.70
2023-05-20T05:29:25.417Z,13.70
2023-05-20T05:32:13.629Z,13.60
2023-05-20T05:35:01.817Z,13.60
2023-05-20T05:37:51.313Z,13.60
2023-05-20T05:40:39.531Z,13.70
2023-05-20T05:43:27.735Z,13.70
2023-05-20T05:46:16.065Z,13.70
2023-05-20T05:49:04.278Z,13.70
2023-05-20T05:51:52.437Z,13.70
2023-05-20T05:54:41.943Z,13.70
2023-05-20T05:57:30.028Z,13.80
2023-05-20T06:00:18.446Z,13.80
2023-05-20T06:03:06.674Z,13.80
2023-05-20T06:05:54.838Z,13.90
2023-05-20T06:08:42.960Z,13.90
2023-05-20T06:11:32.436Z,14.00
2023-05-20T06:14:20.576Z,14.10
2023-05-20T06:17:08.712Z,14.20
2023-05-20T06:19:56.887Z,14.30
2023-05-20T06:22:44.976Z,14.40
2023-05-20T06:25:33.204Z,14.40
2023-05-20T06:28:22.950Z,14.50
2023-05-20T06:31:11.134Z,14.50
2023-05-20T06:33:59.334Z,14.50
2023-05-20T06:36:47.499Z,14.50
2023-05-20T06:39:35.587Z,14.60
2023-05-20T06:42:23.678Z,14.60
2023-05-20T06:45:14.038Z,14.80
2023-05-20T06:48:02.401Z,14.80
2023-05-20T06:50:50.637Z,14.90
2023-05-20T06:53:38.793Z,15.00
2023-05-20T06:56:26.985Z,15.20
2023-05-20T06:59:15.147Z,15.30
2023-05-20T07:02:04.838Z,15.30
2023-05-20T07:04:53.070Z,15.50
2023-05-20T07:07:41.260Z,15.60
2023-05-20T07:10:29.424Z,15.70
2023-05-20T07:13:17.504Z,15.70
2023-05-20T07:16:06.061Z,15.80
2023-05-20T07:18:55.715Z,15.80
2023-05-20T07:21:43.852Z,15.90
2023-05-20T07:24:31.966Z,16.00
2023-05-20T07:27:20.206Z,16.10
2023-05-20T07:30:08.872Z,16.20
2023-05-20T07:32:56.998Z,16.20
2023-05-20T07:35:47.001Z,16.40
2023-05-20T07:38:35.153Z,16.50
2023-05-20T07:41:23.294Z,16.50
2023-05-20T07:44:12.408Z,16.50
2023-05-20T07:47:01.029Z,16.60
2023-05-20T07:49:49.152Z,16.50
2023-05-20T07:52:51.873Z,16.50
2023-05-20T07:55:43.824Z,16.50
2023-05-20T07:58:32.581Z,16.50
2023-05-20T08:01:21.279Z,16.50
2023-05-20T08:04:09.701Z,16.40
2023-05-20T08:06:57.887Z,16.40
2023-05-20T08:09:47.369Z,16.40
2023-05-20T08:12:35.513Z,16.50
2023-05-20T08:15:23.673Z,16.50
2023-05-20T08:18:12.116Z,16.50
2023-05-20T08:21:00.941Z,16.60
2023-05-20T08:23:49.078Z,16.50
2023-05-20T08:26:38.521Z,16.40
2023-05-20T08:29:26.839Z,16.50
2023-05-20T08:32:14.966Z,16.40
2023-05-20T08:35:03.158Z,16.30
2023-05-20T08:37:51.358Z,16.40
2023-05-20T08:40:39.645Z,16.40
2023-05-20T08:43:30.267Z,16.50
2023-05-20T08:46:19.869Z,16.50
2023-05-20T08:49:08.336Z,16.60
2023-05-20T08:51:57.006Z,16.60
2023-05-20T08:54:46.070Z,16.70
2023-05-20T08:57:34.510Z,16.70
2023-05-20T09:00:27.399Z,16.70
2023-05-20T09:03:15.608Z,16.80
2023-05-20T09:06:07.651Z,16.90
2023-05-20T09:08:56.164Z,17.00
2023-05-20T09:11:44.344Z,17.00
2023-05-20T09:14:32.852Z,17.00
2023-05-20T09:17:24.146Z,17.00
2023-05-20T09:20:12.584Z,17.10
2023-05-20T09:23:01.592Z,17.10
2023-05-20T09:25:50.916Z,17.10
2023-05-20T09:28:41.034Z,17.10
2023-05-20T09:31:29.531Z,17.10
2023-05-20T09:34:19.232Z,17.00
2023-05-20T09:37:08.675Z,17.00
2023-05-20T09:40:00.225Z,17.00
2023-05-20T09:42:51.589Z,16.90
2023-05-20T09:45:39.794Z,16.80
2023-05-20T09:48:28.539Z,16.90
2023-05-20T09:51:18.578Z,16.90
2023-05-20T09:54:08.441Z,17.00
2023-05-20T09:56:58.267Z,16.90
2023-05-20T09:59:46.751Z,16.90
2023-05-20T10:02:35.473Z,17.00
2023-05-20T10:05:25.872Z,17.00
2023-05-20T10:08:29.104Z,17.10
2023-05-20T10:11:23.128Z,17.10
2023-05-20T10:14:19.021Z,17.20
2023-05-20T10:17:10.215Z,17.30
2023-05-20T10:19:59.134Z,17.40
2023-05-20T10:22:56.552Z,17.50
2023-05-20T10:25:51.324Z,17.60
2023-05-20T10:28:41.539Z,17.70
2023-05-20T10:31:34.483Z,17.80
2023-05-20T10:34:23.205Z,17.80
2023-05-20T10:37:22.071Z,17.70
2023-05-20T10:40:11.588Z,17.60
2023-05-20T10:43:09.655Z,17.60
2023-05-20T10:45:59.450Z,17.70
2023-05-20T10:48:47.635Z,17.80
2023-05-20T10:51:37.378Z,17.90
2023-05-20T10:54:25.461Z,17.90
2023-05-20T10:57:13.541Z,17.90
2023-05-20T11:00:05.606Z,17.90
2023-05-20T11:02:53.918Z,18.00
2023-05-20T11:05:42.526Z,18.10
2023-05-20T11:08:31.459Z,18.10
2023-05-20T11:11:19.678Z,18.10
2023-05-20T11:14:07.836Z,18.10
2023-05-20T11:16:59.205Z,18.20
2023-05-20T11:19:47.424Z,18.30
2023-05-20T11:22:35.568Z,18.40
2023-05-20T11:25:24.244Z,18.40
2023-05-20T11:28:14.060Z,18.40
2023-05-20T11:31:02.275Z,18.60
2023-05-20T11:33:52.167Z,18.70
2023-05-20T11:36:41.887Z,18.90
2023-05-20T11:39:31.015Z,19.00
2023-05-20T11:42:19.154Z,19.10
2023-05-20T11:45:07.900Z,19.10
2023-05-20T11:48:02.991Z,19.10
2023-05-20T11:50:54.129Z,19.10
2023-05-20T11:53:42.262Z,19.00
2023-05-20T11:56:30.683Z,18.90
2023-05-20T11:59:18.875Z,18.90
2023-05-20T12:02:07.500Z,18.90
2023-05-20T12:04:55.742Z,19.10
2023-05-20T12:07:45.555Z,19.30
2023-05-20T12:10:34.252Z,19.50
2023-05-20T12:13:24.867Z,19.80
2023-05-20T12:16:13.044Z,20.10
2023-05-20T12:19:01.691Z,20.50
2023-05-20T12:21:49.897Z,20.80
2023-05-20T12:24:39.329Z,21.20
2023-05-20T12:27:28.233Z,21.70
2023-05-20T12:30:16.855Z,22.00
2023-05-20T12:33:05.097Z,22.10
2023-05-20T12:35:53.280Z,21.80
2023-05-20T12:38:41.763Z,21.80
2023-05-20T12:41:31.277Z,21.90
2023-05-20T12:44:19.400Z,22.30
2023-05-20T12:47:07.616Z,22.50
2023-05-20T12:49:55.965Z,22.40
2023-05-20T12:52:44.211Z,22.30
2023-05-20T12:55:32.493Z,22.20
2023-05-20T12:58:22.132Z,22.30
2023-05-20T13:01:10.282Z,22.60
2023-05-20T13:03:58.453Z,22.90
2023-05-20T13:06:46.765Z,23.10
2023-05-20T13:09:34.912Z,23.20
2023-05-20T13:12:23.205Z,23.40
2023-05-20T13:15:13.100Z,23.50
2023-05-20T13:18:01.971Z,23.60
2023-05-20T13:20:50.539Z,23.50
2023-05-20T13:23:38.790Z,23.50
2023-05-20T13:26:26.953Z,23.60
2023-05-20T13:29:15.170Z,23.80
2023-05-20T13:32:04.815Z,24.10
2023-05-20T13:34:52.894Z,24.20
2023-05-20T13:37:41.143Z,23.90
2023-05-20T13:40:29.315Z,23.70
2023-05-20T13:43:17.686Z,23.90
2023-05-20T13:46:05.916Z,23.90
2023-05-20T13:48:55.451Z,23.70
2023-05-20T13:51:43.574Z,23.70
2023-05-20T13:54:31.778Z,23.90
2023-05-20T13:57:19.849Z,24.20
2023-05-20T14:00:08.536Z,24.50
2023-05-20T14:02:56.780Z,24.80
2023-05-20T14:05:46.525Z,25.10
2023-05-20T14:08:34.883Z,25.20
2023-05-20T14:11:23.045Z,25.40
2023-05-20T14:14:11.157Z,25.70
2023-05-20T14:16:59.434Z,25.70
2023-05-20T14:19:47.982Z,25.90
2023-05-20T14:22:37.430Z,25.90
2023-05-20T14:25:25.512Z,26.20
2023-05-20T14:28:13.675Z,26.50
2023-05-20T14:31:01.900Z,26.60
2023-05-20T14:33:50.353Z,26.80
2023-05-20T14:36:38.888Z,26.90
2023-05-20T14:39:28.366Z,27.10
2023-05-20T14:42:16.826Z,27.20
2023-05-20T14:45:05.143Z,27.30
2023-05-20T14:47:53.369Z,27.40
2023-05-20T14:50:41.750Z,27.50
2023-05-20T14:53:29.980Z,27.30
2023-05-20T14:56:19.515Z,26.70
2023-05-20T14:59:07.656Z,26.70
2023-05-20T15:01:55.752Z,26.50
2023-05-20T15:04:46.416Z,26.50
2023-05-20T15:07:34.656Z,26.90
2023-05-20T15:10:22.817Z,27.40
2023-05-20T15:13:12.404Z,27.80
2023-05-20T15:16:00.870Z,28.20
2023-05-20T15:18:49.008Z,28.60
2023-05-20T15:21:37.200Z,28.90
2023-05-20T15:24:25.468Z,29.10
2023-05-20T15:27:13.729Z,29.20
2023-05-20T15:30:03.267Z,29.50
2023-05-20T15:32:51.472Z,29.70
2023-05-20T15:35:39.710Z,29.80
2023-05-20T15:38:28.067Z,29.90
2023-05-20T15:41:16.185Z,30.20
2023-05-20T15:44:04.672Z,30.30
2023-05-20T15:46:54.138Z,30.60
2023-05-20T15:49:42.259Z,30.70
2023-05-20T15:52:30.437Z,30.70
2023-05-20T15:55:18.636Z,30.70
2023-05-20T15:58:06.729Z,30.80
2023-05-20T16:00:54.905Z,31.00
2023-05-20T16:03:44.707Z,31.20
2023-05-20T16:06:34.280Z,31.30
2023-05-20T16:09:22.491Z,31.30
2023-05-20T16:12:12.306Z,31.20
2023-05-20T16:15:00.448Z,31.20
2023-05-20T16:17:48.688Z,31.00
2023-05-20T16:20:38.342Z,31.00
2023-05-20T16:23:26.502Z,30.90
2023-05-20T16:26:14.801Z,30.70
2023-05-20T16:29:03.251Z,30.70
2023-05-20T16:31:51.437Z,30.50
2023-05-20T16:34:39.555Z,30.30
2023-05-20T16:37:29.074Z,30.30
2023-05-20T16:40:17.175Z,30.40
2023-05-20T16:43:05.292Z,30.30
2023-05-20T16:45:53.832Z,30.30
2023-05-20T16:48:42.298Z,30.30
2023-05-20T16:51:31.132Z,30.10
2023-05-20T16:54:21.372Z,29.80
2023-05-20T16:57:11.434Z,29.70
2023-05-20T16:59:59.595Z,29.60
2023-05-20T17:02:47.765Z,29.50
2023-05-20T17:05:35.942Z,29.30
2023-05-20T17:08:24.084Z,29.20
2023-05-20T17:11:13.806Z,29.10
2023-05-20T17:14:01.990Z,29.00
2023-05-20T17:16:50.171Z,28.90
2023-05-20T17:19:38.422Z,28.70
2023-05-20T17:22:29.174Z,28.50
2023-05-20T17:25:17.338Z,28.20
2023-05-20T17:28:06.858Z,27.80
2023-05-20T17:30:54.967Z,27.60
2023-05-20T17:33:43.142Z,27.30
2023-05-20T17:36:31.579Z,27.00
2023-05-20T17:39:19.724Z,26.80
2023-05-20T17:42:07.867Z,26.50
2023-05-20T17:44:57.488Z,26.30
2023-05-20T17:47:45.729Z,26.00
2023-05-20T17:50:34.326Z,25.70
2023-05-20T17:53:22.657Z,25.60
2023-05-20T17:56:10.780Z,25.30
2023-05-20T17:58:59.282Z,25.00
2023-05-20T18:01:48.969Z,24.70
2023-05-20T18:04:37.165Z,24.20
2023-05-20T18:07:27.099Z,23.90
2023-05-20T18:10:15.317Z,23.50
2023-05-20T18:13:03.649Z,23.30
2023-05-20T18:15:52.612Z,23.00
2023-05-20T18:18:42.272Z,22.80
2023-05-20T18:21:30.495Z,22.60
2023-05-20T18:24:20.510Z,22.40
2023-05-20T18:27:08.684Z,22.20
2023-05-20T18:29:56.814Z,22.00
2023-05-20T18:32:45.526Z,21.90
2023-05-20T18:35:35.026Z,21.70
2023-05-20T18:38:23.353Z,21.60
2023-05-20T18:41:14.912Z,21.40
2023-05-20T18:44:05.111Z,21.30
2023-05-20T18:46:54.062Z,21.30
2023-05-20T18:49:42.182Z,21.10
2023-05-20T18:52:31.847Z,21.00
2023-05-20T18:55:19.985Z,21.00
2023-05-20T18:58:08.052Z,20.80
2023-05-20T19:00:56.749Z,20.70
2023-05-20T19:03:45.035Z,20.70
2023-05-20T19:06:35.254Z,20.60
2023-05-20T19:09:24.768Z,20.50
2023-05-20T19:12:12.843Z,20.40
2023-05-20T19:15:01.471Z,20.40
2023-05-20T19:17:49.676Z,20.30
2023-05-20T19:20:37.902Z,20.20
2023-05-20T19:23:26.021Z,20.20
2023-05-20T19:26:15.609Z,20.10
2023-05-20T19:29:03.754Z,20.00
2023-05-20T19:31:51.874Z,19.90
2023-05-20T19:34:41.102Z,19.80
2023-05-20T19:37:29.274Z,19.70
2023-05-20T19:40:17.405Z,19.70
2023-05-20T19:43:06.894Z,19.60
2023-05-20T19:45:55.072Z,19.60
2023-05-20T19:48:43.205Z,19.60
2023-05-20T19:51:31.328Z,19.50
2023-05-20T19:54:19.455Z,19.50
2023-05-20T19:57:07.591Z,19.40
2023-05-20T19:59:57.078Z,19.30
2023-05-20T20:02:45.235Z,19.30
2023-05-20T20:05:33.505Z,19.20
2023-05-20T20:08:21.817Z,19.20
2023-05-20T20:11:10.018Z,19.10
2023-05-20T20:13:59.339Z,19.10
2023-05-20T20:16:49.479Z,19.10
2023-05-20T20:19:38.946Z,19.00
2023-05-20T20:22:27.069Z,19.00
2023-05-20T20:25:15.552Z,18.90
2023-05-20T20:28:04.007Z,18.90
2023-05-20T20:30:52.216Z,18.80
2023-05-20T20:33:41.897Z,18.80
2023-05-20T20:36:32.062Z,18.70
2023-05-20T20:39:20.280Z,18.70
2023-05-20T20:42:08.391Z,18.60
2023-05-20T20:44:56.519Z,18.50
2023-05-20T20:47:45.102Z,18.40
2023-05-20T20:50:34.655Z,18.40
2023-05-20T20:53:22.899Z,18.30
2023-05-20T20:56:11.450Z,18.20
2023-05-20T20:59:00.353Z,18.20
2023-05-20T21:01:49.482Z,18.20
2023-05-20T21:04:39.845Z,18.20
2023-05-20T21:07:30.276Z,18.20
2023-05-20T21:10:18.543Z,18.10
2023-05-20T21:13:06.776Z,18.10
2023-05-20T21:15:54.923Z,18.00
2023-05-20T21:18:43.359Z,18.00
2023-05-20T21:21:31.782Z,17.90
2023-05-20T21:24:21.289Z,17.90
2023-05-20T21:27:09.448Z,17.90
2023-05-20T21:29:57.548Z,17.80
2023-05-20T21:32:45.699Z,17.80
2023-05-20T21:35:34.011Z,17.70
2023-05-20T21:38:22.230Z,17.70
2023-05-20T21:41:11.866Z,17.60
2023-05-20T21:44:00.102Z,17.60
2023-05-20T21:46:48.381Z,17.50
2023-05-20T21:49:36.574Z,17.50
2023-05-20T21:52:24.692Z,17.40
2023-05-20T21:55:13.195Z,17.40
2023-05-20T21:58:02.796Z,17.30
2023-05-20T22:00:50.938Z,17.20
2023-05-20T22:03:39.838Z,17.10
2023-05-20T22:06:28.213Z,17.00
2023-05-20T22:09:16.655Z,17.00
2023-05-20T22:12:05.043Z,17.00
2023-05-20T22:14:54.521Z,17.00
2023-05-20T22:17:43.575Z,16.90
2023-05-20T22:20:33.881Z,16.80
2023-05-20T22:23:22.049Z,16.80
2023-05-20T22:26:10.175Z,16.70
2023-05-20T22:28:58.271Z,16.70
2023-05-20T22:31:47.827Z,16.60
2023-05-20T22:34:36.346Z,16.50
2023-05-20T22:37:25.106Z,16.50
2023-05-20T22:40:13.534Z,16.40
2023-05-20T22:43:01.646Z,16.40
2023-05-20T22:45:49.850Z,16.20
2023-05-20T22:48:39.311Z,16.00
2023-05-20T22:51:27.447Z,15.80
2023-05-20T22:54:15.602Z,15.70
2023-05-20T22:57:03.783Z,15.50
2023-05-20T22:59:53.954Z,15.40
2023-05-20T23:02:42.488Z,15.40
2023-05-20T23:05:31.989Z,15.40
2023-05-20T23:08:20.092Z,15.30
2023-05-20T23:11:08.310Z,15.30
2023-05-20T23:13:56.412Z,15.20
2023-05-20T23:16:44.571Z,15.20
2023-05-20T23:19:32.751Z,15.20
2023-05-20T23:22:22.687Z,15.20
2023-05-20T23:25:11.040Z,15.10
2023-05-20T23:27:59.255Z,15.10
2023-05-20T23:30:48.426Z,15.10
2023-05-20T23:33:36.781Z,15.10
2023-05-20T23:36:25.646Z,15.10
2023-05-20T23:39:16.860Z,15.00
2023-05-20T23:42:06.491Z,15.00
2023-05-20T23:44:54.559Z,14.90
2023-05-20T23:47:43.649Z,14.90
2023-05-20T23:50:32.756Z,14.90
2023-05-20T23:53:21.185Z,14.80
2023-05-20T23:56:10.776Z,14.70
2023-05-20T23:58:58.880Z,14.70
